createdAt,value
2018-12-14T00:00:40.734Z,2.80
2018-12-14T00:03:08.253Z,2.80
2018-12-14T00:05:35.747Z,2.80
2018-12-14T00:08:03.268Z,2.80
2018-12-14T00:10:30.765Z,2.80
2018-12-14T00:12:58.281Z,2.80
2018-12-14T00:15:25.781Z,2.80
2018-12-14T00:17:53.305Z,2.80
2018-12-14T00:20:20.803Z,2.80
2018-12-14T00:22:48.324Z,2.70
2018-12-14T00:25:15.833Z,2.80
2018-12-14T00:27:43.348Z,2.70
2018-12-14T00:30:11.007Z,2.70
2018-12-14T00:32:38.659Z,2.70
2018-12-14T00:35:06.265Z,2.70
2018-12-14T00:37:33.764Z,2.70
2018-12-14T00:40:01.923Z,2.70
2018-12-14T00:42:29.487Z,2.70
2018-12-14T00:44:57.012Z,2.70
2018-12-14T00:47:24.515Z,2.70
2018-12-14T00:49:52.049Z,2.70
2018-12-14T00:52:19.548Z,2.70
2018-12-14T00:54:47.072Z,2.80
2018-12-14T00:57:14.571Z,2.70
2018-12-14T00:59:42.136Z,2.70
2018-12-14T01:02:11.594Z,2.70
2018-12-14T01:04:39.122Z,2.70
2018-12-14T01:07:06.653Z,2.70
2018-12-14T01:09:34.173Z,2.70
2018-12-14T01:12:01.665Z,2.70
2018-12-14T01:14:29.232Z,2.70
2018-12-14T01:16:56.737Z,2.70
2018-12-14T01:19:24.254Z,2.70
2018-12-14T01:21:51.748Z,2.70
2018-12-14T01:24:19.264Z,2.70
2018-12-14T01:26:46.755Z,2.70
2018-12-14T01:29:14.277Z,2.70
2018-12-14T01:31:41.769Z,2.70
2018-12-14T01:34:09.292Z,2.70
2018-12-14T01:36:36.852Z,2.70
2018-12-14T01:39:05.185Z,2.70
2018-12-14T01:41:32.683Z,2.60
2018-12-14T01:44:00.206Z,2.70
2018-12-14T01:46:27.710Z,2.60
2018-12-14T01:48:55.245Z,2.60
2018-12-14T01:51:22.744Z,2.60
2018-12-14T01:53:50.240Z,2.60
2018-12-14T01:56:17.762Z,2.60
2018-12-14T01:58:45.261Z,2.60
2018-12-14T02:01:12.776Z,2.60
2018-12-14T02:03:40.976Z,2.60
2018-12-14T02:06:08.505Z,2.60
2018-12-14T02:08:36.000Z,2.60
2018-12-14T02:11:03.574Z,2.60
2018-12-14T02:13:31.085Z,2.60
2018-12-14T02:15:58.649Z,2.60
2018-12-14T02:18:26.149Z,2.60
2018-12-14T02:20:54.654Z,2.60
2018-12-14T02:23:22.187Z,2.60
2018-12-14T02:25:49.706Z,2.60
2018-12-14T02:28:17.200Z,2.60
2018-12-14T02:30:45.144Z,2.60
2018-12-14T02:33:12.700Z,2.60
2018-12-14T02:35:40.219Z,2.60
2018-12-14T02:38:07.795Z,2.50
2018-12-14T02:40:35.321Z,2.50
2018-12-14T02:43:02.873Z,2.50
2018-12-14T02:45:30.502Z,2.50
2018-12-14T02:47:57.997Z,2.50
2018-12-14T02:50:25.561Z,2.50
2018-12-14T02:52:53.058Z,2.40
2018-12-14T02:55:20.762Z,2.40
2018-12-14T02:57:48.280Z,2.40
2018-12-14T03:00:15.857Z,2.40
2018-12-14T03:02:43.426Z,2.40
2018-12-14T03:05:10.963Z,2.40
2018-12-14T03:07:38.466Z,2.40
2018-12-14T03:10:06.473Z,2.40
2018-12-14T03:12:34.750Z,2.40
2018-12-14T03:15:02.426Z,2.40
2018-12-14T03:17:30.254Z,2.40
2018-12-14T03:19:57.797Z,2.40
2018-12-14T03:22:25.675Z,2.40
2018-12-14T03:24:53.373Z,2.40
2018-12-14T03:27:20.942Z,2.40
2018-12-14T03:29:49.092Z,2.40
2018-12-14T03:32:16.616Z,2.40
2018-12-14T03:34:44.108Z,2.30
2018-12-14T03:37:11.631Z,2.30
2018-12-14T03:39:39.134Z,2.30
2018-12-14T03:42:06.807Z,2.30
2018-12-14T03:44:34.311Z,2.30
2018-12-14T03:47:02.038Z,2.30
2018-12-14T03:49:29.635Z,2.30
2018-12-14T03:51:57.153Z,2.20
2018-12-14T03:54:24.660Z,2.20
2018-12-14T03:56:52.183Z,2.20
2018-12-14T03:59:19.688Z,2.20
2018-12-14T04:01:47.226Z,2.20
2018-12-14T04:04:14.725Z,2.20
2018-12-14T04:06:42.250Z,2.20
2018-12-14T04:09:09.762Z,2.20
2018-12-14T04:11:37.294Z,2.20
2018-12-14T04:14:04.810Z,2.20
2018-12-14T04:16:32.346Z,2.20
2018-12-14T04:18:59.849Z,2.20
2018-12-14T04:21:27.358Z,2.20
2018-12-14T04:23:54.881Z,2.20
2018-12-14T04:26:22.381Z,2.20
2018-12-14T04:28:49.897Z,2.10
2018-12-14T04:31:17.445Z,2.20
2018-12-14T04:33:45.020Z,2.20
2018-12-14T04:36:12.524Z,2.10
2018-12-14T04:38:40.045Z,2.10
2018-12-14T04:41:07.541Z,2.10
2018-12-14T04:43:35.061Z,2.10
2018-12-14T04:46:02.568Z,2.10
2018-12-14T04:48:30.089Z,2.10
2018-12-14T04:50:57.643Z,2.10
2018-12-14T04:53:25.165Z,2.10
2018-12-14T04:55:52.705Z,2.10
2018-12-14T04:58:20.226Z,2.10
2018-12-14T05:00:47.777Z,2.10
2018-12-14T05:03:15.306Z,2.10
2018-12-14T05:05:42.815Z,2.10
2018-12-14T05:08:10.345Z,2.10
2018-12-14T05:10:37.845Z,2.10
2018-12-14T05:13:05.782Z,2.10
2018-12-14T05:15:33.395Z,2.20
2018-12-14T05:18:00.922Z,2.20
2018-12-14T05:20:28.427Z,2.20
2018-12-14T05:22:55.948Z,2.20
2018-12-14T05:25:23.484Z,2.20
2018-12-14T05:27:51.012Z,2.20
2018-12-14T05:30:18.857Z,2.10
2018-12-14T05:32:46.388Z,2.10
2018-12-14T05:35:13.893Z,2.10
2018-12-14T05:37:41.434Z,2.10
2018-12-14T05:40:08.932Z,2.10
2018-12-14T05:42:36.520Z,2.10
2018-12-14T05:45:04.345Z,2.10
2018-12-14T05:47:31.898Z,2.10
2018-12-14T05:49:59.426Z,2.10
2018-12-14T05:52:26.933Z,2.10
2018-12-14T05:54:54.552Z,2.00
2018-12-14T05:57:22.101Z,2.00
2018-12-14T05:59:49.720Z,2.00
2018-12-14T06:02:17.226Z,2.00
2018-12-14T06:04:44.749Z,2.00
2018-12-14T06:07:12.259Z,2.00
2018-12-14T06:09:39.846Z,2.00
2018-12-14T06:12:07.701Z,2.10
2018-12-14T06:14:35.229Z,2.20
2018-12-14T06:17:02.736Z,2.30
2018-12-14T06:19:30.266Z,2.40
2018-12-14T06:21:57.771Z,2.50
2018-12-14T06:24:25.299Z,2.60
2018-12-14T06:26:52.814Z,2.70
2018-12-14T06:29:20.344Z,2.70
2018-12-14T06:31:47.840Z,2.90
2018-12-14T06:34:15.361Z,2.90
2018-12-14T06:36:42.875Z,2.90
2018-12-14T06:39:10.398Z,2.90
2018-12-14T06:41:38.278Z,2.90
2018-12-14T06:44:05.801Z,3.00
2018-12-14T06:46:33.308Z,2.90
2018-12-14T06:49:00.837Z,2.90
2018-12-14T06:51:28.413Z,2.80
2018-12-14T06:53:55.914Z,2.80
2018-12-14T06:56:23.456Z,2.80
2018-12-14T06:58:50.959Z,2.90
2018-12-14T07:01:18.481Z,3.00
2018-12-14T07:03:45.986Z,2.90
2018-12-14T07:06:13.508Z,2.90
2018-12-14T07:08:41.011Z,2.70
2018-12-14T07:11:08.528Z,2.60
2018-12-14T07:13:36.034Z,2.40
2018-12-14T07:16:03.601Z,2.40
2018-12-14T07:18:31.109Z,2.30
2018-12-14T07:20:58.678Z,2.20
2018-12-14T07:23:26.229Z,2.10
2018-12-14T07:25:53.759Z,2.10
2018-12-14T07:28:21.256Z,2.10
2018-12-14T07:30:48.811Z,2.00
2018-12-14T07:33:16.314Z,2.00
2018-12-14T07:35:43.837Z,2.00
2018-12-14T07:38:11.385Z,2.00
2018-12-14T07:40:38.901Z,2.00
2018-12-14T07:43:06.405Z,2.00
2018-12-14T07:45:33.925Z,2.00
2018-12-14T07:48:01.422Z,2.00
2018-12-14T07:50:28.955Z,2.00
2018-12-14T07:52:58.009Z,2.00
2018-12-14T07:55:25.618Z,2.00
2018-12-14T07:57:53.118Z,2.00
2018-12-14T08:00:21.075Z,2.00
2018-12-14T08:02:49.983Z,2.00
2018-12-14T08:05:17.487Z,2.00
2018-12-14T08:07:46.539Z,2.00
2018-12-14T08:10:14.167Z,2.00
2018-12-14T08:12:43.479Z,2.00
2018-12-14T08:15:11.956Z,2.00
2018-12-14T08:17:39.561Z,2.00
2018-12-14T08:20:07.131Z,2.00
2018-12-14T08:22:34.669Z,2.00
2018-12-14T08:25:02.173Z,2.00
2018-12-14T08:27:29.755Z,2.00
2018-12-14T08:29:57.261Z,2.10
2018-12-14T08:32:24.913Z,2.00
2018-12-14T08:34:52.427Z,2.00
2018-12-14T08:37:19.953Z,2.10
2018-12-14T08:39:47.454Z,2.10
2018-12-14T08:42:14.978Z,2.10
2018-12-14T08:44:42.473Z,2.10
2018-12-14T08:47:09.997Z,2.10
2018-12-14T08:49:37.567Z,2.10
2018-12-14T08:52:05.165Z,2.10
2018-12-14T08:54:32.670Z,2.20
2018-12-14T08:57:00.245Z,2.20
2018-12-14T08:59:27.753Z,2.20
2018-12-14T09:01:55.274Z,2.30
2018-12-14T09:04:22.769Z,2.30
2018-12-14T09:06:50.298Z,2.30
2018-12-14T09:09:17.800Z,2.40
2018-12-14T09:11:45.330Z,2.40
2018-12-14T09:14:12.842Z,2.40
2018-12-14T09:16:40.434Z,2.40
2018-12-14T09:19:07.938Z,2.50
2018-12-14T09:21:35.465Z,2.50
2018-12-14T09:24:02.992Z,2.50
2018-12-14T09:26:30.504Z,2.50
2018-12-14T09:28:58.336Z,2.50
2018-12-14T09:31:26.150Z,2.50
2018-12-14T09:33:53.669Z,2.60
2018-12-14T09:36:21.218Z,2.60
2018-12-14T09:38:48.744Z,2.60
2018-12-14T09:41:16.460Z,2.60
2018-12-14T09:43:44.095Z,2.70
2018-12-14T09:46:11.599Z,2.70
2018-12-14T09:48:39.122Z,2.70
2018-12-14T09:51:12.146Z,2.70
2018-12-14T09:53:36.213Z,2.70
2018-12-14T09:56:03.765Z,2.60
2018-12-14T09:58:31.284Z,2.60
2018-12-14T10:00:58.805Z,2.60
2018-12-14T10:03:26.326Z,2.60
2018-12-14T10:05:53.826Z,2.60
2018-12-14T10:08:21.396Z,2.60
2018-12-14T10:10:49.145Z,2.60
2018-12-14T10:13:16.819Z,2.70
2018-12-14T10:15:44.320Z,2.70
2018-12-14T10:18:11.911Z,2.70
2018-12-14T10:20:39.441Z,2.70
2018-12-14T10:23:06.961Z,2.80
2018-12-14T10:25:34.509Z,2.80
2018-12-14T10:28:02.122Z,2.80
2018-12-14T10:30:29.757Z,2.80
2018-12-14T10:32:57.256Z,2.80
2018-12-14T10:35:25.737Z,2.80
2018-12-14T10:37:53.509Z,2.90
2018-12-14T10:40:21.129Z,2.90
2018-12-14T10:42:48.638Z,2.90
2018-12-14T10:45:16.162Z,2.90
2018-12-14T10:47:44.683Z,2.90
2018-12-14T10:50:12.265Z,3.00
2018-12-14T10:52:39.761Z,3.00
2018-12-14T10:55:07.385Z,3.10
2018-12-14T10:57:35.323Z,3.10
2018-12-14T11:00:04.211Z,3.20
2018-12-14T11:02:32.325Z,3.20
2018-12-14T11:04:59.917Z,3.30
2018-12-14T11:07:27.809Z,3.30
2018-12-14T11:09:56.818Z,3.40
2018-12-14T11:12:24.322Z,3.40
2018-12-14T11:14:53.038Z,3.50
2018-12-14T11:17:20.735Z,3.50
2018-12-14T11:19:48.255Z,3.50
2018-12-14T11:22:15.758Z,3.50
2018-12-14T11:24:43.285Z,3.40
2018-12-14T11:27:11.201Z,3.50
2018-12-14T11:29:38.777Z,3.50
2018-12-14T11:32:06.281Z,3.50
2018-12-14T11:34:34.653Z,3.50
2018-12-14T11:37:02.153Z,3.50
2018-12-14T11:39:29.677Z,3.40
2018-12-14T11:41:57.168Z,3.40
2018-12-14T11:44:24.693Z,3.40
2018-12-14T11:46:52.197Z,3.40
2018-12-14T11:49:19.736Z,3.40
2018-12-14T11:51:47.291Z,3.40
2018-12-14T11:54:14.798Z,3.40
2018-12-14T11:56:42.325Z,3.30
2018-12-14T11:59:09.830Z,3.30
2018-12-14T12:01:37.404Z,3.30
2018-12-14T12:04:04.950Z,3.30
2018-12-14T12:06:32.481Z,3.30
2018-12-14T12:08:59.989Z,3.30
2018-12-14T12:11:27.512Z,3.30
2018-12-14T12:13:55.011Z,3.30
2018-12-14T12:16:22.529Z,3.30
2018-12-14T12:18:50.031Z,3.30
2018-12-14T12:21:17.846Z,3.30
2018-12-14T12:23:45.345Z,3.30
2018-12-14T12:26:12.986Z,3.30
2018-12-14T12:28:40.485Z,3.30
2018-12-14T12:31:08.001Z,3.30
2018-12-14T12:33:35.505Z,3.30
2018-12-14T12:36:03.024Z,3.30
2018-12-14T12:38:30.520Z,3.30
2018-12-14T12:40:58.125Z,3.30
2018-12-14T12:43:25.621Z,3.30
2018-12-14T12:45:53.151Z,3.30
2018-12-14T12:48:20.876Z,3.30
2018-12-14T12:50:48.373Z,3.30
2018-12-14T12:53:18.073Z,3.30
2018-12-14T12:55:46.123Z,3.30
2018-12-14T12:58:13.681Z,3.20
2018-12-14T13:00:41.189Z,3.10
2018-12-14T13:03:08.721Z,3.10
2018-12-14T13:05:36.226Z,3.10
2018-12-14T13:08:03.796Z,3.10
2018-12-14T13:10:31.298Z,3.10
2018-12-14T13:12:58.821Z,3.00
2018-12-14T13:15:26.381Z,3.00
2018-12-14T13:17:53.905Z,3.00
2018-12-14T13:20:21.410Z,3.10
2018-12-14T13:22:49.852Z,3.10
2018-12-14T13:25:17.369Z,3.10
2018-12-14T13:27:44.897Z,3.10
2018-12-14T13:30:12.402Z,3.20
2018-12-14T13:32:39.921Z,3.20
2018-12-14T13:35:07.474Z,3.20
2018-12-14T13:37:34.997Z,3.20
2018-12-14T13:40:02.552Z,3.20
2018-12-14T13:42:30.099Z,3.30
2018-12-14T13:44:57.868Z,3.30
2018-12-14T13:47:25.393Z,3.30
2018-12-14T13:49:52.917Z,3.30
2018-12-14T13:52:20.437Z,3.20
2018-12-14T13:54:47.943Z,3.20
2018-12-14T13:57:15.588Z,3.20
2018-12-14T13:59:43.109Z,3.20
2018-12-14T14:02:10.634Z,3.10
2018-12-14T14:04:38.141Z,3.10
2018-12-14T14:07:05.650Z,3.10
2018-12-14T14:09:33.174Z,3.00
2018-12-14T14:12:00.730Z,3.00
2018-12-14T14:14:28.256Z,3.00
2018-12-14T14:16:56.105Z,2.90
2018-12-14T14:19:24.607Z,2.90
2018-12-14T14:21:52.118Z,2.90
2018-12-14T14:24:19.646Z,2.90
2018-12-14T14:26:47.152Z,2.90
2018-12-14T14:29:14.733Z,2.90
2018-12-14T14:31:42.289Z,2.90
2018-12-14T14:34:09.826Z,2.90
2018-12-14T14:36:37.573Z,2.80
2018-12-14T14:39:06.498Z,2.80
2018-12-14T14:41:34.049Z,2.80
2018-12-14T14:44:01.594Z,2.80
2018-12-14T14:46:29.096Z,2.80
2018-12-14T14:48:56.621Z,2.80
2018-12-14T14:51:24.181Z,2.70
2018-12-14T14:56:14.974Z,2.70
2018-12-14T14:58:42.525Z,2.70
2018-12-14T15:01:10.051Z,2.70
2018-12-14T15:03:37.569Z,2.70
2018-12-14T15:06:05.101Z,2.60
2018-12-14T15:08:32.611Z,2.60
2018-12-14T15:11:00.151Z,2.60
2018-12-14T15:13:29.631Z,2.60
2018-12-14T15:15:57.164Z,2.60
2018-12-14T15:18:24.677Z,2.60
2018-12-14T15:20:52.214Z,2.60
2018-12-14T15:23:19.722Z,2.60
2018-12-14T15:25:47.251Z,2.60
2018-12-14T15:28:14.762Z,2.60
2018-12-14T15:30:42.290Z,2.60
2018-12-14T15:33:09.797Z,2.60
2018-12-14T15:35:37.334Z,2.50
2018-12-14T15:38:04.845Z,2.50
2018-12-14T15:40:32.425Z,2.50
2018-12-14T15:42:59.945Z,2.50
2018-12-14T15:45:27.485Z,2.50
2018-12-14T15:47:54.997Z,2.50
2018-12-14T15:50:22.537Z,2.50
2018-12-14T15:52:50.113Z,2.50
2018-12-14T15:55:17.637Z,2.50
2018-12-14T15:57:45.144Z,2.50
2018-12-14T16:00:12.830Z,2.50
2018-12-14T16:02:40.341Z,2.40
2018-12-14T16:05:07.973Z,2.40
2018-12-14T16:07:35.510Z,2.40
2018-12-14T16:10:04.329Z,2.40
2018-12-14T16:12:31.861Z,2.40
2018-12-14T16:14:59.397Z,2.30
2018-12-14T16:17:27.085Z,2.30
2018-12-14T16:19:54.706Z,2.30
2018-12-14T16:22:22.450Z,2.30
2018-12-14T16:24:49.978Z,2.30
2018-12-14T16:27:17.681Z,2.30
2018-12-14T16:29:45.190Z,2.20
2018-12-14T16:32:12.722Z,2.20
2018-12-14T16:34:40.288Z,2.20
2018-12-14T16:37:07.825Z,2.20
2018-12-14T16:39:35.437Z,2.20
2018-12-14T16:42:03.073Z,2.20
2018-12-14T16:44:30.686Z,2.20
2018-12-14T16:46:58.258Z,2.20
2018-12-14T16:49:25.769Z,2.20
2018-12-14T16:51:53.299Z,2.20
2018-12-14T16:54:20.809Z,2.20
2018-12-14T16:56:48.393Z,2.20
2018-12-14T16:59:15.957Z,2.20
2018-12-14T17:01:43.550Z,2.20
2018-12-14T17:04:11.062Z,2.20
2018-12-14T17:06:38.624Z,2.20
2018-12-14T17:09:06.540Z,2.10
2018-12-14T17:11:34.105Z,2.10
2018-12-14T17:14:01.633Z,2.10
2018-12-14T17:16:29.149Z,2.10
2018-12-14T17:18:56.683Z,2.10
2018-12-14T17:21:24.250Z,2.10
2018-12-14T17:23:51.785Z,2.10
2018-12-14T17:26:19.298Z,2.10
2018-12-14T17:28:46.834Z,2.10
2018-12-14T17:31:14.350Z,2.10
2018-12-14T17:33:41.879Z,2.10
2018-12-14T17:36:09.398Z,2.10
2018-12-14T17:38:36.929Z,2.10
2018-12-14T17:41:04.442Z,2.10
2018-12-14T17:43:32.027Z,2.10
2018-12-14T17:45:59.550Z,2.10
2018-12-14T17:48:27.080Z,2.10
2018-12-14T17:50:54.589Z,2.10
2018-12-14T17:53:22.123Z,2.10
2018-12-14T17:55:49.635Z,2.20
2018-12-14T17:58:17.165Z,2.20
2018-12-14T18:00:44.728Z,2.20
2018-12-14T18:03:12.257Z,2.20
2018-12-14T18:05:39.821Z,2.20
2018-12-14T18:08:07.351Z,2.20
2018-12-14T18:10:34.862Z,2.20
2018-12-14T18:13:02.419Z,2.20
2018-12-14T18:15:29.929Z,2.20
2018-12-14T18:17:57.479Z,2.20
2018-12-14T18:20:24.985Z,2.20
2018-12-14T18:22:52.645Z,2.20
2018-12-14T18:25:20.433Z,2.20
2018-12-14T18:27:47.950Z,2.10
2018-12-14T18:30:15.578Z,2.10
2018-12-14T18:32:43.087Z,2.10
2018-12-14T18:35:10.612Z,2.10
2018-12-14T18:37:38.121Z,2.10
2018-12-14T18:40:07.258Z,2.10
2018-12-14T18:42:34.778Z,2.10
2018-12-14T18:45:02.314Z,2.10
2018-12-14T18:47:29.878Z,2.10
2018-12-14T18:49:57.413Z,2.10
2018-12-14T18:52:24.927Z,2.00
2018-12-14T18:54:52.465Z,2.00
2018-12-14T18:57:20.229Z,2.00
2018-12-14T18:59:47.756Z,2.00
2018-12-14T19:02:15.274Z,2.00
2018-12-14T19:04:42.962Z,2.00
2018-12-14T19:07:10.533Z,2.00
2018-12-14T19:09:38.325Z,2.00
2018-12-14T19:12:05.828Z,1.90
2018-12-14T19:14:33.958Z,1.90
2018-12-14T19:17:01.512Z,1.90
2018-12-14T19:19:29.097Z,1.90
2018-12-14T19:21:56.830Z,1.90
2018-12-14T19:24:24.408Z,1.80
2018-12-14T19:26:51.913Z,1.80
2018-12-14T19:29:19.854Z,1.80
2018-12-14T19:31:47.556Z,1.80
2018-12-14T19:34:15.097Z,1.80
2018-12-14T19:36:42.661Z,1.80
2018-12-14T19:39:10.234Z,1.80
2018-12-14T19:41:37.761Z,1.80
2018-12-14T19:44:05.269Z,1.80
2018-12-14T19:46:32.809Z,1.70
2018-12-14T19:49:00.485Z,1.70
2018-12-14T19:51:28.049Z,1.70
2018-12-14T19:53:55.562Z,1.70
2018-12-14T19:56:23.101Z,1.70
2018-12-14T19:58:50.612Z,1.70
2018-12-14T20:01:18.193Z,1.70
2018-12-14T20:03:45.710Z,1.70
2018-12-14T20:06:13.239Z,1.70
2018-12-14T20:08:40.763Z,1.70
2018-12-14T20:11:08.397Z,1.70
2018-12-14T20:13:35.905Z,1.70
2018-12-14T20:16:03.437Z,1.70
2018-12-14T20:18:30.948Z,1.70
2018-12-14T20:20:58.529Z,1.70
2018-12-14T20:23:26.119Z,1.70
2018-12-14T20:25:55.376Z,1.70
2018-12-14T20:28:22.888Z,1.70
2018-12-14T20:30:50.420Z,1.70
2018-12-14T20:33:17.935Z,1.70
2018-12-14T20:35:45.467Z,1.70
2018-12-14T20:38:13.133Z,1.60
2018-12-14T20:40:40.708Z,1.60
2018-12-14T20:43:08.225Z,1.60
2018-12-14T20:45:35.761Z,1.50
2018-12-14T20:48:03.278Z,1.50
2018-12-14T20:50:30.810Z,1.50
2018-12-14T20:52:58.336Z,1.50
2018-12-14T20:55:25.842Z,1.50
2018-12-14T20:57:53.374Z,1.50
2018-12-14T21:00:21.574Z,1.50
2018-12-14T21:02:49.353Z,1.50
2018-12-14T21:05:16.869Z,1.40
2018-12-14T21:07:44.404Z,1.40
2018-12-14T21:10:11.971Z,1.40
2018-12-14T21:12:39.505Z,1.40
2018-12-14T21:15:07.116Z,1.40
2018-12-14T21:17:34.654Z,1.40
2018-12-14T21:20:02.222Z,1.40
2018-12-14T21:22:29.750Z,1.40
2018-12-14T21:24:57.272Z,1.40
2018-12-14T21:27:24.807Z,1.40
2018-12-14T21:29:52.326Z,1.40
2018-12-14T21:32:19.866Z,1.40
2018-12-14T21:34:47.382Z,1.40
2018-12-14T21:37:14.909Z,1.40
2018-12-14T21:39:42.429Z,1.40
2018-12-14T21:42:09.981Z,1.40
2018-12-14T21:44:37.497Z,1.40
2018-12-14T21:47:05.033Z,1.40
2018-12-14T21:49:33.218Z,1.40
2018-12-14T21:52:00.996Z,1.40
2018-12-14T21:54:28.590Z,1.30
2018-12-14T21:56:56.176Z,1.40
2018-12-14T21:59:23.686Z,1.30
2018-12-14T22:01:51.229Z,1.40
2018-12-14T22:04:18.741Z,1.30
2018-12-14T22:06:46.502Z,1.30
2018-12-14T22:09:14.037Z,1.30
2018-12-14T22:11:41.598Z,1.30
2018-12-14T22:14:09.125Z,1.30
2018-12-14T22:16:39.321Z,1.30
2018-12-14T22:19:06.185Z,1.30
2018-12-14T22:21:33.693Z,1.30
2018-12-14T22:24:01.233Z,1.30
2018-12-14T22:26:28.737Z,1.30
2018-12-14T22:28:56.264Z,1.20
2018-12-14T22:31:23.776Z,1.30
2018-12-14T22:33:51.309Z,1.20
2018-12-14T22:36:18.822Z,1.20
2018-12-14T22:38:46.350Z,1.20
2018-12-14T22:41:14.077Z,1.20
2018-12-14T22:43:41.602Z,1.20
2018-12-14T22:46:09.508Z,1.20
2018-12-14T22:48:37.491Z,1.20
2018-12-14T22:51:06.318Z,1.20
2018-12-14T22:53:35.113Z,1.30
2018-12-14T22:56:03.134Z,1.20
2018-12-14T22:58:31.269Z,1.20
2018-12-14T23:00:59.377Z,1.20
2018-12-14T23:03:28.143Z,1.20
2018-12-14T23:05:56.107Z,1.20
2018-12-14T23:08:23.702Z,1.10
2018-12-14T23:10:52.224Z,1.20
2018-12-14T23:13:19.865Z,1.10
2018-12-14T23:15:47.647Z,1.20
2018-12-14T23:18:15.191Z,1.20
2018-12-14T23:20:42.702Z,1.20
2018-12-14T23:23:10.210Z,1.20
2018-12-14T23:25:37.738Z,1.10
2018-12-14T23:28:05.257Z,1.10
2018-12-14T23:30:32.785Z,1.10
2018-12-14T23:33:00.293Z,1.20
2018-12-14T23:35:27.825Z,1.20
2018-12-14T23:37:55.339Z,1.20
2018-12-14T23:40:23.838Z,1.20
2018-12-14T23:42:51.352Z,1.30
2018-12-14T23:45:18.890Z,1.30
2018-12-14T23:47:46.413Z,1.30
2018-12-14T23:50:14.006Z,1.30
2018-12-14T23:52:41.527Z,1.30
2018-12-14T23:55:09.059Z,1.30
2018-12-14T23:57:36.570Z,1.30
